sensor_id;sensor_type;location;lat;lon;timestamp;P1;durP1;ratioP1;P2;durP2;ratioP2
7605;SDS011;3844;53.360;9.738;2023-04-06T00:00:30;12.48;;;6.55;;
7605;SDS011;3844;53.360;9.738;2023-04-06T00:02:31;11.00;;;6.07;;
7605;SDS011;3844;53.360;9.738;2023-04-06T00:04:32;10.52;;;5.93;;
7605;SDS011;3844;53.360;9.738;2023-04-06T00:06:33;9.98;;;5.80;;
7605;SDS011;3844;53.360;9.738;2023-04-06T00:08:33;11.13;;;5.90;;
7605;SDS011;3844;53.360;9.738;2023-04-06T00:10:34;11.02;;;5.80;;
7605;SDS011;3844;53.360;9.738;2023-04-06T00:12:35;11.68;;;6.55;;
7605;SDS011;3844;53.360;9.738;2023-04-06T00:14:36;10.73;;;6.38;;
7605;SDS011;3844;53.360;9.738;2023-04-06T00:16:37;13.35;;;6.32;;
7605;SDS011;3844;53.360;9.738;2023-04-06T00:18:38;10.55;;;5.95;;
7605;SDS011;3844;53.360;9.738;2023-04-06T00:20:39;11.68;;;6.18;;
7605;SDS011;3844;53.360;9.738;2023-04-06T00:22:40;10.50;;;6.10;;
7605;SDS011;3844;53.360;9.738;2023-04-06T00:24:41;10.57;;;6.05;;
7605;SDS011;3844;53.360;9.738;2023-04-06T00:26:41;10.43;;;6.40;;
7605;SDS011;3844;53.360;9.738;2023-04-06T00:28:42;11.75;;;6.35;;
7605;SDS011;3844;53.360;9.738;2023-04-06T00:30:43;11.30;;;6.22;;
7605;SDS011;3844;53.360;9.738;2023-04-06T00:32:44;10.50;;;5.95;;
7605;SDS011;3844;53.360;9.738;2023-04-06T00:34:44;11.23;;;6.20;;
7605;SDS011;3844;53.360;9.738;2023-04-06T00:36:45;12.63;;;6.35;;
7605;SDS011;3844;53.360;9.738;2023-04-06T00:38:46;12.85;;;6.40;;
7605;SDS011;3844;53.360;9.738;2023-04-06T00:40:47;10.90;;;5.85;;
7605;SDS011;3844;53.360;9.738;2023-04-06T00:42:48;10.00;;;6.00;;
7605;SDS011;3844;53.360;9.738;2023-04-06T00:44:48;12.35;;;6.43;;
7605;SDS011;3844;53.360;9.738;2023-04-06T00:46:49;11.75;;;5.97;;
7605;SDS011;3844;53.360;9.738;2023-04-06T00:48:50;10.95;;;6.20;;
7605;SDS011;3844;53.360;9.738;2023-04-06T00:50:51;10.10;;;5.90;;
7605;SDS011;3844;53.360;9.738;2023-04-06T00:52:52;11.77;;;6.05;;
7605;SDS011;3844;53.360;9.738;2023-04-06T00:54:54;10.57;;;5.78;;
7605;SDS011;3844;53.360;9.738;2023-04-06T00:56:55;11.80;;;5.93;;
7605;SDS011;3844;53.360;9.738;2023-04-06T00:58:56;9.40;;;5.70;;
7605;SDS011;3844;53.360;9.738;2023-04-06T01:00:57;10.82;;;6.00;;
7605;SDS011;3844;53.360;9.738;2023-04-06T01:02:58;8.70;;;5.25;;
7605;SDS011;3844;53.360;9.738;2023-04-06T01:04:59;10.10;;;5.70;;
7605;SDS011;3844;53.360;9.738;2023-04-06T01:07:00;11.75;;;5.80;;
7605;SDS011;3844;53.360;9.738;2023-04-06T01:09:01;11.48;;;5.88;;
7605;SDS011;3844;53.360;9.738;2023-04-06T01:11:02;10.93;;;5.78;;
7605;SDS011;3844;53.360;9.738;2023-04-06T01:13:03;10.73;;;5.70;;
7605;SDS011;3844;53.360;9.738;2023-04-06T01:15:04;9.70;;;5.10;;
7605;SDS011;3844;53.360;9.738;2023-04-06T01:17:06;11.05;;;5.60;;
7605;SDS011;3844;53.360;9.738;2023-04-06T01:19:10;10.35;;;5.53;;
7605;SDS011;3844;53.360;9.738;2023-04-06T01:21:11;12.15;;;5.53;;
7605;SDS011;3844;53.360;9.738;2023-04-06T01:25:16;10.30;;;5.60;;
7605;SDS011;3844;53.360;9.738;2023-04-06T01:27:16;11.00;;;5.78;;
7605;SDS011;3844;53.360;9.738;2023-04-06T01:29:17;12.15;;;6.00;;
7605;SDS011;3844;53.360;9.738;2023-04-06T01:31:18;10.45;;;6.07;;
7605;SDS011;3844;53.360;9.738;2023-04-06T01:33:18;10.43;;;5.97;;
7605;SDS011;3844;53.360;9.738;2023-04-06T01:35:20;11.98;;;6.05;;
7605;SDS011;3844;53.360;9.738;2023-04-06T01:37:21;11.30;;;5.90;;
7605;SDS011;3844;53.360;9.738;2023-04-06T01:39:22;12.35;;;6.03;;
7605;SDS011;3844;53.360;9.738;2023-04-06T01:41:23;10.63;;;5.75;;
7605;SDS011;3844;53.360;9.738;2023-04-06T01:43:23;10.20;;;5.88;;
7605;SDS011;3844;53.360;9.738;2023-04-06T01:45:24;11.70;;;5.95;;
7605;SDS011;3844;53.360;9.738;2023-04-06T01:47:25;12.00;;;6.13;;
7605;SDS011;3844;53.360;9.738;2023-04-06T01:49:25;11.18;;;5.97;;
7605;SDS011;3844;53.360;9.738;2023-04-06T01:51:26;11.27;;;5.70;;
7605;SDS011;3844;53.360;9.738;2023-04-06T01:53:27;9.13;;;5.35;;
7605;SDS011;3844;53.360;9.738;2023-04-06T01:55:28;9.48;;;5.47;;
7605;SDS011;3844;53.360;9.738;2023-04-06T01:57:28;12.15;;;5.53;;
7605;SDS011;3844;53.360;9.738;2023-04-06T01:59:29;10.82;;;5.75;;
7605;SDS011;3844;53.360;9.738;2023-04-06T02:01:30;9.32;;;4.90;;
7605;SDS011;3844;53.360;9.738;2023-04-06T02:03:30;8.95;;;5.22;;
7605;SDS011;3844;53.360;9.738;2023-04-06T02:05:32;9.90;;;5.32;;
7605;SDS011;3844;53.360;9.738;2023-04-06T02:07:37;10.85;;;5.55;;
7605;SDS011;3844;53.360;9.738;2023-04-06T02:09:38;10.25;;;5.40;;
7605;SDS011;3844;53.360;9.738;2023-04-06T02:11:40;9.80;;;5.40;;
7605;SDS011;3844;53.360;9.738;2023-04-06T02:13:41;10.85;;;5.50;;
7605;SDS011;3844;53.360;9.738;2023-04-06T02:15:42;10.65;;;5.65;;
7605;SDS011;3844;53.360;9.738;2023-04-06T02:17:42;12.07;;;6.10;;
7605;SDS011;3844;53.360;9.738;2023-04-06T02:19:43;9.93;;;5.65;;
7605;SDS011;3844;53.360;9.738;2023-04-06T02:21:44;13.00;;;6.32;;
7605;SDS011;3844;53.360;9.738;2023-04-06T02:23:45;11.73;;;6.05;;
7605;SDS011;3844;53.360;9.738;2023-04-06T02:25:47;12.13;;;6.25;;
7605;SDS011;3844;53.360;9.738;2023-04-06T02:27:47;12.07;;;6.25;;
7605;SDS011;3844;53.360;9.738;2023-04-06T02:29:48;10.35;;;5.75;;
7605;SDS011;3844;53.360;9.738;2023-04-06T02:31:49;12.80;;;6.50;;
7605;SDS011;3844;53.360;9.738;2023-04-06T02:33:50;14.93;;;6.95;;
7605;SDS011;3844;53.360;9.738;2023-04-06T02:35:51;13.70;;;7.05;;
7605;SDS011;3844;53.360;9.738;2023-04-06T02:37:52;16.35;;;8.15;;
7605;SDS011;3844;53.360;9.738;2023-04-06T02:39:52;16.60;;;9.00;;
7605;SDS011;3844;53.360;9.738;2023-04-06T02:41:53;17.63;;;8.75;;
7605;SDS011;3844;53.360;9.738;2023-04-06T02:43:56;16.45;;;8.30;;
7605;SDS011;3844;53.360;9.738;2023-04-06T02:45:56;17.60;;;8.98;;
7605;SDS011;3844;53.360;9.738;2023-04-06T02:47:57;17.30;;;9.10;;
7605;SDS011;3844;53.360;9.738;2023-04-06T02:49:57;17.77;;;9.02;;
7605;SDS011;3844;53.360;9.738;2023-04-06T02:51:59;17.90;;;9.27;;
7605;SDS011;3844;53.360;9.738;2023-04-06T02:54:00;20.05;;;10.07;;
7605;SDS011;3844;53.360;9.738;2023-04-06T02:56:00;17.83;;;9.13;;
7605;SDS011;3844;53.360;9.738;2023-04-06T02:58:01;18.10;;;9.52;;
7605;SDS011;3844;53.360;9.738;2023-04-06T03:00:02;16.88;;;8.85;;
7605;SDS011;3844;53.360;9.738;2023-04-06T03:02:03;18.77;;;8.75;;
7605;SDS011;3844;53.360;9.738;2023-04-06T03:04:04;18.23;;;9.13;;
7605;SDS011;3844;53.360;9.738;2023-04-06T03:06:05;17.95;;;9.13;;
7605;SDS011;3844;53.360;9.738;2023-04-06T03:08:06;16.50;;;8.60;;
7605;SDS011;3844;53.360;9.738;2023-04-06T03:10:07;17.58;;;8.50;;
7605;SDS011;3844;53.360;9.738;2023-04-06T03:12:09;16.35;;;8.32;;
7605;SDS011;3844;53.360;9.738;2023-04-06T03:14:10;15.15;;;8.35;;
7605;SDS011;3844;53.360;9.738;2023-04-06T03:16:10;15.00;;;8.07;;
7605;SDS011;3844;53.360;9.738;2023-04-06T03:18:11;15.70;;;8.15;;
7605;SDS011;3844;53.360;9.738;2023-04-06T03:20:12;13.38;;;7.43;;
7605;SDS011;3844;53.360;9.738;2023-04-06T03:22:12;16.00;;;7.97;;
7605;SDS011;3844;53.360;9.738;2023-04-06T03:24:14;16.13;;;8.70;;
7605;SDS011;3844;53.360;9.738;2023-04-06T03:26:14;16.88;;;8.27;;
7605;SDS011;3844;53.360;9.738;2023-04-06T03:28:15;13.85;;;7.85;;
7605;SDS011;3844;53.360;9.738;2023-04-06T03:30:16;14.98;;;7.90;;
7605;SDS011;3844;53.360;9.738;2023-04-06T03:32:17;13.20;;;7.65;;
7605;SDS011;3844;53.360;9.738;2023-04-06T03:34:18;15.43;;;8.00;;
7605;SDS011;3844;53.360;9.738;2023-04-06T03:36:18;13.18;;;7.00;;
7605;SDS011;3844;53.360;9.738;2023-04-06T03:38:20;12.65;;;7.50;;
7605;SDS011;3844;53.360;9.738;2023-04-06T03:40:20;13.93;;;7.55;;
7605;SDS011;3844;53.360;9.738;2023-04-06T03:42:21;14.32;;;7.63;;
7605;SDS011;3844;53.360;9.738;2023-04-06T03:44:23;14.90;;;6.90;;
7605;SDS011;3844;53.360;9.738;2023-04-06T03:46:24;14.27;;;7.45;;
7605;SDS011;3844;53.360;9.738;2023-04-06T03:48:25;14.27;;;7.20;;
7605;SDS011;3844;53.360;9.738;2023-04-06T03:50:25;11.27;;;6.35;;
7605;SDS011;3844;53.360;9.738;2023-04-06T03:52:26;12.32;;;6.78;;
7605;SDS011;3844;53.360;9.738;2023-04-06T03:54:27;12.50;;;6.47;;
7605;SDS011;3844;53.360;9.738;2023-04-06T03:56:27;12.52;;;6.43;;
7605;SDS011;3844;53.360;9.738;2023-04-06T03:58:28;11.02;;;6.20;;
7605;SDS011;3844;53.360;9.738;2023-04-06T04:00:29;10.35;;;6.15;;
7605;SDS011;3844;53.360;9.738;2023-04-06T04:02:29;12.00;;;6.20;;
7605;SDS011;3844;53.360;9.738;2023-04-06T04:04:30;10.77;;;6.28;;
7605;SDS011;3844;53.360;9.738;2023-04-06T04:06:31;13.68;;;6.40;;
7605;SDS011;3844;53.360;9.738;2023-04-06T04:08:32;12.75;;;6.40;;
7605;SDS011;3844;53.360;9.738;2023-04-06T04:10:32;12.75;;;6.57;;
7605;SDS011;3844;53.360;9.738;2023-04-06T04:12:33;13.60;;;6.70;;
7605;SDS011;3844;53.360;9.738;2023-04-06T04:14:33;11.68;;;6.20;;
7605;SDS011;3844;53.360;9.738;2023-04-06T04:16:34;12.02;;;6.45;;
7605;SDS011;3844;53.360;9.738;2023-04-06T04:18:35;11.93;;;5.93;;
7605;SDS011;3844;53.360;9.738;2023-04-06T04:20:36;12.82;;;6.50;;
7605;SDS011;3844;53.360;9.738;2023-04-06T04:22:37;11.68;;;6.03;;
7605;SDS011;3844;53.360;9.738;2023-04-06T04:24:38;10.98;;;6.15;;
7605;SDS011;3844;53.360;9.738;2023-04-06T04:26:38;11.27;;;5.90;;
7605;SDS011;3844;53.360;9.738;2023-04-06T04:28:39;12.18;;;6.10;;
7605;SDS011;3844;53.360;9.738;2023-04-06T04:30:40;12.02;;;6.45;;
7605;SDS011;3844;53.360;9.738;2023-04-06T04:32:41;11.07;;;5.93;;
7605;SDS011;3844;53.360;9.738;2023-04-06T04:34:41;9.52;;;5.70;;
7605;SDS011;3844;53.360;9.738;2023-04-06T04:36:42;11.10;;;6.00;;
7605;SDS011;3844;53.360;9.738;2023-04-06T04:38:43;9.52;;;5.82;;
7605;SDS011;3844;53.360;9.738;2023-04-06T04:40:43;10.52;;;6.10;;
7605;SDS011;3844;53.360;9.738;2023-04-06T04:42:44;11.52;;;5.85;;
7605;SDS011;3844;53.360;9.738;2023-04-06T04:44:46;10.65;;;6.03;;
7605;SDS011;3844;53.360;9.738;2023-04-06T04:46:47;10.82;;;6.28;;
7605;SDS011;3844;53.360;9.738;2023-04-06T04:48:47;13.02;;;6.30;;
7605;SDS011;3844;53.360;9.738;2023-04-06T04:50:48;10.23;;;5.82;;
7605;SDS011;3844;53.360;9.738;2023-04-06T04:52:49;10.98;;;6.10;;
7605;SDS011;3844;53.360;9.738;2023-04-06T04:54:50;12.63;;;5.80;;
7605;SDS011;3844;53.360;9.738;2023-04-06T04:56:51;10.80;;;6.10;;
7605;SDS011;3844;53.360;9.738;2023-04-06T04:58:52;12.52;;;6.63;;
7605;SDS011;3844;53.360;9.738;2023-04-06T05:00:53;11.75;;;6.55;;
7605;SDS011;3844;53.360;9.738;2023-04-06T05:02:53;10.88;;;6.65;;
7605;SDS011;3844;53.360;9.738;2023-04-06T05:04:54;12.73;;;6.75;;
7605;SDS011;3844;53.360;9.738;2023-04-06T05:07:07;12.18;;;6.70;;
7605;SDS011;3844;53.360;9.738;2023-04-06T05:09:09;12.77;;;6.55;;
7605;SDS011;3844;53.360;9.738;2023-04-06T05:11:10;11.60;;;6.60;;
7605;SDS011;3844;53.360;9.738;2023-04-06T05:13:11;13.52;;;7.40;;
7605;SDS011;3844;53.360;9.738;2023-04-06T05:15:12;14.63;;;7.57;;
7605;SDS011;3844;53.360;9.738;2023-04-06T05:17:13;12.73;;;7.05;;
7605;SDS011;3844;53.360;9.738;2023-04-06T05:19:14;14.07;;;7.28;;
7605;SDS011;3844;53.360;9.738;2023-04-06T05:21:15;14.82;;;7.72;;
7605;SDS011;3844;53.360;9.738;2023-04-06T05:23:16;14.25;;;7.93;;
7605;SDS011;3844;53.360;9.738;2023-04-06T05:25:17;13.00;;;7.60;;
7605;SDS011;3844;53.360;9.738;2023-04-06T05:27:18;14.77;;;7.97;;
7605;SDS011;3844;53.360;9.738;2023-04-06T05:29:18;13.55;;;7.72;;
7605;SDS011;3844;53.360;9.738;2023-04-06T05:31:20;11.35;;;7.18;;
7605;SDS011;3844;53.360;9.738;2023-04-06T05:33:21;13.85;;;7.57;;
7605;SDS011;3844;53.360;9.738;2023-04-06T05:35:21;15.23;;;8.10;;
7605;SDS011;3844;53.360;9.738;2023-04-06T05:37:22;12.88;;;7.28;;
7605;SDS011;3844;53.360;9.738;2023-04-06T05:39:23;16.13;;;8.18;;
7605;SDS011;3844;53.360;9.738;2023-04-06T05:41:24;14.93;;;8.25;;
7605;SDS011;3844;53.360;9.738;2023-04-06T05:43:24;14.50;;;8.70;;
7605;SDS011;3844;53.360;9.738;2023-04-06T05:45:25;17.67;;;9.13;;
7605;SDS011;3844;53.360;9.738;2023-04-06T05:47:26;16.88;;;9.27;;
7605;SDS011;3844;53.360;9.738;2023-04-06T05:49:26;17.75;;;9.40;;
7605;SDS011;3844;53.360;9.738;2023-04-06T05:51:27;17.30;;;9.80;;
7605;SDS011;3844;53.360;9.738;2023-04-06T05:53:33;18.60;;;10.30;;
7605;SDS011;3844;53.360;9.738;2023-04-06T05:55:34;19.08;;;10.63;;
7605;SDS011;3844;53.360;9.738;2023-04-06T05:57:35;20.02;;;11.30;;
7605;SDS011;3844;53.360;9.738;2023-04-06T05:59:36;21.00;;;10.98;;
7605;SDS011;3844;53.360;9.738;2023-04-06T06:01:36;17.67;;;10.43;;
7605;SDS011;3844;53.360;9.738;2023-04-06T06:03:37;20.45;;;10.65;;
7605;SDS011;3844;53.360;9.738;2023-04-06T06:05:38;18.67;;;10.23;;
7605;SDS011;3844;53.360;9.738;2023-04-06T06:07:38;16.67;;;10.10;;
7605;SDS011;3844;53.360;9.738;2023-04-06T06:09:39;18.95;;;10.77;;
7605;SDS011;3844;53.360;9.738;2023-04-06T06:11:41;19.05;;;9.90;;
7605;SDS011;3844;53.360;9.738;2023-04-06T06:13:42;15.68;;;9.65;;
7605;SDS011;3844;53.360;9.738;2023-04-06T06:15:43;16.77;;;9.75;;
7605;SDS011;3844;53.360;9.738;2023-04-06T06:17:43;15.98;;;9.38;;
7605;SDS011;3844;53.360;9.738;2023-04-06T06:19:44;15.60;;;9.25;;
7605;SDS011;3844;53.360;9.738;2023-04-06T06:21:45;15.75;;;9.57;;
7605;SDS011;3844;53.360;9.738;2023-04-06T06:23:46;16.77;;;9.88;;
7605;SDS011;3844;53.360;9.738;2023-04-06T06:25:49;15.85;;;9.40;;
7605;SDS011;3844;53.360;9.738;2023-04-06T06:27:49;17.83;;;9.40;;
7605;SDS011;3844;53.360;9.738;2023-04-06T06:29:50;15.73;;;9.10;;
7605;SDS011;3844;53.360;9.738;2023-04-06T06:31:51;15.18;;;9.07;;
7605;SDS011;3844;53.360;9.738;2023-04-06T06:33:52;16.00;;;8.20;;
7605;SDS011;3844;53.360;9.738;2023-04-06T06:35:53;12.52;;;7.50;;
7605;SDS011;3844;53.360;9.738;2023-04-06T06:37:53;14.75;;;7.57;;
7605;SDS011;3844;53.360;9.738;2023-04-06T06:39:54;13.65;;;7.57;;
7605;SDS011;3844;53.360;9.738;2023-04-06T06:41:55;12.43;;;7.25;;
7605;SDS011;3844;53.360;9.738;2023-04-06T06:43:56;13.65;;;7.45;;
7605;SDS011;3844;53.360;9.738;2023-04-06T06:45:57;13.52;;;7.05;;
7605;SDS011;3844;53.360;9.738;2023-04-06T06:47:58;11.52;;;6.88;;
7605;SDS011;3844;53.360;9.738;2023-04-06T06:49:59;13.93;;;7.07;;
7605;SDS011;3844;53.360;9.738;2023-04-06T06:52:00;13.55;;;7.15;;
7605;SDS011;3844;53.360;9.738;2023-04-06T06:54:00;13.02;;;7.30;;
7605;SDS011;3844;53.360;9.738;2023-04-06T06:56:01;9.30;;;5.90;;
7605;SDS011;3844;53.360;9.738;2023-04-06T06:58:02;10.30;;;5.90;;
7605;SDS011;3844;53.360;9.738;2023-04-06T07:00:03;9.65;;;5.80;;
7605;SDS011;3844;53.360;9.738;2023-04-06T07:02:05;10.15;;;5.30;;
7605;SDS011;3844;53.360;9.738;2023-04-06T07:04:06;10.38;;;5.13;;
7605;SDS011;3844;53.360;9.738;2023-04-06T07:06:08;8.00;;;5.00;;
7605;SDS011;3844;53.360;9.738;2023-04-06T07:08:09;9.57;;;4.85;;
7605;SDS011;3844;53.360;9.738;2023-04-06T07:10:10;10.00;;;4.60;;
7605;SDS011;3844;53.360;9.738;2023-04-06T07:12:11;10.27;;;4.97;;
7605;SDS011;3844;53.360;9.738;2023-04-06T07:14:11;9.20;;;4.93;;
7605;SDS011;3844;53.360;9.738;2023-04-06T07:16:12;8.90;;;4.53;;
7605;SDS011;3844;53.360;9.738;2023-04-06T07:18:13;8.85;;;4.47;;
7605;SDS011;3844;53.360;9.738;2023-04-06T07:20:14;8.25;;;4.32;;
7605;SDS011;3844;53.360;9.738;2023-04-06T07:22:15;8.07;;;4.10;;
7605;SDS011;3844;53.360;9.738;2023-04-06T07:24:16;7.18;;;4.22;;
7605;SDS011;3844;53.360;9.738;2023-04-06T07:26:16;7.90;;;4.13;;
7605;SDS011;3844;53.360;9.738;2023-04-06T07:28:17;6.75;;;3.78;;
7605;SDS011;3844;53.360;9.738;2023-04-06T07:30:18;8.15;;;3.65;;
7605;SDS011;3844;53.360;9.738;2023-04-06T07:32:19;9.45;;;4.43;;
7605;SDS011;3844;53.360;9.738;2023-04-06T07:34:20;8.48;;;4.25;;
7605;SDS011;3844;53.360;9.738;2023-04-06T07:36:21;7.97;;;3.95;;
7605;SDS011;3844;53.360;9.738;2023-04-06T07:38:21;7.88;;;4.00;;
7605;SDS011;3844;53.360;9.738;2023-04-06T07:40:22;7.88;;;3.80;;
7605;SDS011;3844;53.360;9.738;2023-04-06T07:42:23;8.45;;;3.60;;
7605;SDS011;3844;53.360;9.738;2023-04-06T07:44:24;8.10;;;4.40;;
7605;SDS011;3844;53.360;9.738;2023-04-06T07:46:24;8.73;;;4.60;;
7605;SDS011;3844;53.360;9.738;2023-04-06T07:48:25;7.80;;;4.22;;
7605;SDS011;3844;53.360;9.738;2023-04-06T07:50:26;10.35;;;4.50;;
7605;SDS011;3844;53.360;9.738;2023-04-06T07:52:27;9.23;;;4.88;;
7605;SDS011;3844;53.360;9.738;2023-04-06T07:54:27;8.90;;;4.85;;
7605;SDS011;3844;53.360;9.738;2023-04-06T07:56:28;9.48;;;4.82;;
7605;SDS011;3844;53.360;9.738;2023-04-06T07:58:29;7.57;;;4.45;;
7605;SDS011;3844;53.360;9.738;2023-04-06T08:00:30;9.90;;;5.30;;
7605;SDS011;3844;53.360;9.738;2023-04-06T08:02:31;8.52;;;4.70;;
7605;SDS011;3844;53.360;9.738;2023-04-06T08:04:32;11.90;;;5.13;;
7605;SDS011;3844;53.360;9.738;2023-04-06T08:06:32;7.22;;;4.20;;
7605;SDS011;3844;53.360;9.738;2023-04-06T08:08:34;7.93;;;4.50;;
7605;SDS011;3844;53.360;9.738;2023-04-06T08:10:34;8.18;;;4.30;;
7605;SDS011;3844;53.360;9.738;2023-04-06T08:12:35;8.73;;;4.80;;
7605;SDS011;3844;53.360;9.738;2023-04-06T08:14:36;7.68;;;4.47;;
7605;SDS011;3844;53.360;9.738;2023-04-06T08:16:37;10.57;;;4.40;;
7605;SDS011;3844;53.360;9.738;2023-04-06T08:18:37;8.93;;;3.95;;
7605;SDS011;3844;53.360;9.738;2023-04-06T08:20:38;9.90;;;4.72;;
7605;SDS011;3844;53.360;9.738;2023-04-06T08:22:39;9.13;;;4.13;;
7605;SDS011;3844;53.360;9.738;2023-04-06T08:24:40;7.97;;;4.30;;
7605;SDS011;3844;53.360;9.738;2023-04-06T08:26:41;8.30;;;4.18;;
7605;SDS011;3844;53.360;9.738;2023-04-06T08:28:42;8.05;;;4.35;;
7605;SDS011;3844;53.360;9.738;2023-04-06T08:30:42;8.75;;;3.75;;
7605;SDS011;3844;53.360;9.738;2023-04-06T08:32:43;8.02;;;3.80;;
7605;SDS011;3844;53.360;9.738;2023-04-06T08:34:44;7.70;;;4.10;;
7605;SDS011;3844;53.360;9.738;2023-04-06T08:36:45;8.35;;;4.13;;
7605;SDS011;3844;53.360;9.738;2023-04-06T08:38:46;8.30;;;4.10;;
7605;SDS011;3844;53.360;9.738;2023-04-06T08:40:48;7.80;;;4.40;;
7605;SDS011;3844;53.360;9.738;2023-04-06T08:42:55;8.50;;;4.38;;
7605;SDS011;3844;53.360;9.738;2023-04-06T08:44:56;7.95;;;4.28;;
7605;SDS011;3844;53.360;9.738;2023-04-06T08:46:57;6.63;;;3.70;;
7605;SDS011;3844;53.360;9.738;2023-04-06T08:49:00;9.75;;;4.55;;
7605;SDS011;3844;53.360;9.738;2023-04-06T08:51:02;8.20;;;4.53;;
7605;SDS011;3844;53.360;9.738;2023-04-06T08:53:04;7.68;;;4.07;;
7605;SDS011;3844;53.360;9.738;2023-04-06T08:55:06;6.32;;;3.42;;
7605;SDS011;3844;53.360;9.738;2023-04-06T08:57:07;6.10;;;3.20;;
7605;SDS011;3844;53.360;9.738;2023-04-06T08:59:09;7.28;;;3.85;;
7605;SDS011;3844;53.360;9.738;2023-04-06T09:01:11;6.15;;;3.38;;
7605;SDS011;3844;53.360;9.738;2023-04-06T09:03:13;5.72;;;2.97;;
7605;SDS011;3844;53.360;9.738;2023-04-06T09:05:16;5.85;;;2.90;;
7605;SDS011;3844;53.360;9.738;2023-04-06T09:07:17;6.28;;;3.10;;
7605;SDS011;3844;53.360;9.738;2023-04-06T09:09:18;6.53;;;2.88;;
7605;SDS011;3844;53.360;9.738;2023-04-06T09:11:19;7.05;;;3.58;;
7605;SDS011;3844;53.360;9.738;2023-04-06T09:13:20;6.13;;;3.00;;
7605;SDS011;3844;53.360;9.738;2023-04-06T09:15:21;6.22;;;3.00;;
7605;SDS011;3844;53.360;9.738;2023-04-06T09:17:22;5.30;;;2.50;;
7605;SDS011;3844;53.360;9.738;2023-04-06T09:19:24;5.35;;;2.70;;
7605;SDS011;3844;53.360;9.738;2023-04-06T09:21:25;5.22;;;2.75;;
7605;SDS011;3844;53.360;9.738;2023-04-06T09:23:27;4.45;;;2.55;;
7605;SDS011;3844;53.360;9.738;2023-04-06T09:25:27;6.32;;;2.58;;
7605;SDS011;3844;53.360;9.738;2023-04-06T09:27:32;6.90;;;2.60;;
7605;SDS011;3844;53.360;9.738;2023-04-06T09:29:35;5.75;;;2.60;;
7605;SDS011;3844;53.360;9.738;2023-04-06T09:31:36;5.03;;;2.60;;
7605;SDS011;3844;53.360;9.738;2023-04-06T09:33:38;7.22;;;2.63;;
7605;SDS011;3844;53.360;9.738;2023-04-06T09:35:48;6.13;;;2.80;;
7605;SDS011;3844;53.360;9.738;2023-04-06T09:37:50;7.50;;;2.70;;
7605;SDS011;3844;53.360;9.738;2023-04-06T09:40:01;5.00;;;2.17;;
7605;SDS011;3844;53.360;9.738;2023-04-06T09:42:03;6.68;;;3.08;;
7605;SDS011;3844;53.360;9.738;2023-04-06T09:44:04;5.18;;;2.53;;
7605;SDS011;3844;53.360;9.738;2023-04-06T09:46:06;5.78;;;3.03;;
7605;SDS011;3844;53.360;9.738;2023-04-06T09:48:07;5.65;;;2.88;;
7605;SDS011;3844;53.360;9.738;2023-04-06T09:50:07;6.05;;;2.78;;
7605;SDS011;3844;53.360;9.738;2023-04-06T09:52:11;6.32;;;2.92;;
7605;SDS011;3844;53.360;9.738;2023-04-06T09:54:15;7.38;;;3.00;;
7605;SDS011;3844;53.360;9.738;2023-04-06T09:56:20;5.90;;;3.10;;
7605;SDS011;3844;53.360;9.738;2023-04-06T09:58:25;6.07;;;3.08;;
7605;SDS011;3844;53.360;9.738;2023-04-06T10:00:26;6.00;;;2.80;;
7605;SDS011;3844;53.360;9.738;2023-04-06T10:04:59;5.20;;;3.00;;
7605;SDS011;3844;53.360;9.738;2023-04-06T10:07:08;7.00;;;3.70;;
7605;SDS011;3844;53.360;9.738;2023-04-06T10:09:11;6.75;;;3.65;;
7605;SDS011;3844;53.360;9.738;2023-04-06T10:11:14;5.55;;;3.20;;
7605;SDS011;3844;53.360;9.738;2023-04-06T10:13:15;5.97;;;3.05;;
7605;SDS011;3844;53.360;9.738;2023-04-06T10:15:17;5.75;;;3.20;;
7605;SDS011;3844;53.360;9.738;2023-04-06T10:17:18;6.75;;;3.67;;
7605;SDS011;3844;53.360;9.738;2023-04-06T10:19:21;6.45;;;3.50;;
7605;SDS011;3844;53.360;9.738;2023-04-06T10:21:25;7.68;;;3.90;;
7605;SDS011;3844;53.360;9.738;2023-04-06T10:23:40;9.35;;;3.85;;
7605;SDS011;3844;53.360;9.738;2023-04-06T10:25:58;7.07;;;3.95;;
7605;SDS011;3844;53.360;9.738;2023-04-06T10:28:09;6.65;;;3.90;;
7605;SDS011;3844;53.360;9.738;2023-04-06T10:30:15;6.40;;;3.40;;
7605;SDS011;3844;53.360;9.738;2023-04-06T10:32:17;6.32;;;3.90;;
7605;SDS011;3844;53.360;9.738;2023-04-06T10:34:18;7.68;;;3.83;;
7605;SDS011;3844;53.360;9.738;2023-04-06T10:36:22;6.07;;;3.45;;
7605;SDS011;3844;53.360;9.738;2023-04-06T10:38:35;6.65;;;3.70;;
7605;SDS011;3844;53.360;9.738;2023-04-06T10:40:37;7.68;;;3.78;;
7605;SDS011;3844;53.360;9.738;2023-04-06T10:42:39;6.55;;;3.05;;
7605;SDS011;3844;53.360;9.738;2023-04-06T10:44:43;12.13;;;5.90;;
7605;SDS011;3844;53.360;9.738;2023-04-06T10:46:52;11.32;;;6.65;;
7605;SDS011;3844;53.360;9.738;2023-04-06T10:48:57;9.32;;;5.43;;
7605;SDS011;3844;53.360;9.738;2023-04-06T10:51:00;11.20;;;5.85;;
7605;SDS011;3844;53.360;9.738;2023-04-06T10:53:01;8.95;;;5.70;;
7605;SDS011;3844;53.360;9.738;2023-04-06T10:55:02;10.27;;;6.03;;
7605;SDS011;3844;53.360;9.738;2023-04-06T10:57:04;7.60;;;4.85;;
7605;SDS011;3844;53.360;9.738;2023-04-06T10:59:05;8.63;;;4.68;;
7605;SDS011;3844;53.360;9.738;2023-04-06T11:01:07;8.77;;;5.10;;
7605;SDS011;3844;53.360;9.738;2023-04-06T11:03:11;11.65;;;6.00;;
7605;SDS011;3844;53.360;9.738;2023-04-06T11:05:12;9.95;;;5.82;;
7605;SDS011;3844;53.360;9.738;2023-04-06T11:07:13;11.18;;;7.20;;
7605;SDS011;3844;53.360;9.738;2023-04-06T11:09:27;11.18;;;6.88;;
7605;SDS011;3844;53.360;9.738;2023-04-06T11:11:29;10.80;;;7.20;;
7605;SDS011;3844;53.360;9.738;2023-04-06T11:13:40;11.38;;;6.53;;
7605;SDS011;3844;53.360;9.738;2023-04-06T11:15:42;8.63;;;5.93;;
7605;SDS011;3844;53.360;9.738;2023-04-06T11:17:43;9.63;;;5.80;;
7605;SDS011;3844;53.360;9.738;2023-04-06T11:19:44;10.75;;;6.55;;
7605;SDS011;3844;53.360;9.738;2023-04-06T11:21:46;9.88;;;6.50;;
7605;SDS011;3844;53.360;9.738;2023-04-06T11:23:48;10.65;;;6.35;;
7605;SDS011;3844;53.360;9.738;2023-04-06T11:25:52;10.05;;;6.07;;
7605;SDS011;3844;53.360;9.738;2023-04-06T11:27:52;9.85;;;6.28;;
7605;SDS011;3844;53.360;9.738;2023-04-06T11:29:53;9.68;;;6.13;;
7605;SDS011;3844;53.360;9.738;2023-04-06T11:32:02;9.57;;;6.10;;
7605;SDS011;3844;53.360;9.738;2023-04-06T11:34:15;10.70;;;6.57;;
7605;SDS011;3844;53.360;9.738;2023-04-06T11:36:17;10.05;;;6.15;;
7605;SDS011;3844;53.360;9.738;2023-04-06T11:38:18;8.73;;;6.07;;
7605;SDS011;3844;53.360;9.738;2023-04-06T11:40:21;10.45;;;6.93;;
7605;SDS011;3844;53.360;9.738;2023-04-06T11:42:23;11.48;;;6.53;;
7605;SDS011;3844;53.360;9.738;2023-04-06T11:44:34;11.60;;;7.10;;
7605;SDS011;3844;53.360;9.738;2023-04-06T11:46:35;10.13;;;6.43;;
7605;SDS011;3844;53.360;9.738;2023-04-06T11:48:43;10.38;;;6.72;;
7605;SDS011;3844;53.360;9.738;2023-04-06T11:50:48;11.43;;;6.82;;
7605;SDS011;3844;53.360;9.738;2023-04-06T11:52:58;10.00;;;6.55;;
7605;SDS011;3844;53.360;9.738;2023-04-06T11:55:09;11.68;;;7.13;;
7605;SDS011;3844;53.360;9.738;2023-04-06T11:57:15;13.02;;;7.30;;
7605;SDS011;3844;53.360;9.738;2023-04-06T11:59:17;10.98;;;7.38;;
7605;SDS011;3844;53.360;9.738;2023-04-06T12:01:17;10.93;;;7.30;;
7605;SDS011;3844;53.360;9.738;2023-04-06T12:03:18;10.10;;;6.53;;
7605;SDS011;3844;53.360;9.738;2023-04-06T12:05:19;9.68;;;5.97;;
7605;SDS011;3844;53.360;9.738;2023-04-06T12:07:20;10.00;;;6.15;;
7605;SDS011;3844;53.360;9.738;2023-04-06T12:09:21;10.38;;;6.35;;
7605;SDS011;3844;53.360;9.738;2023-04-06T12:11:21;11.55;;;6.38;;
7605;SDS011;3844;53.360;9.738;2023-04-06T12:13:23;9.90;;;6.95;;
7605;SDS011;3844;53.360;9.738;2023-04-06T12:15:24;10.57;;;6.72;;
7605;SDS011;3844;53.360;9.738;2023-04-06T12:17:25;11.73;;;7.18;;
7605;SDS011;3844;53.360;9.738;2023-04-06T12:19:25;10.40;;;6.60;;
7605;SDS011;3844;53.360;9.738;2023-04-06T12:21:27;12.07;;;6.95;;
7605;SDS011;3844;53.360;9.738;2023-04-06T12:23:33;12.98;;;6.70;;
7605;SDS011;3844;53.360;9.738;2023-04-06T12:25:34;9.73;;;6.75;;
7605;SDS011;3844;53.360;9.738;2023-04-06T12:27:35;10.27;;;6.40;;
7605;SDS011;3844;53.360;9.738;2023-04-06T12:29:37;10.77;;;6.85;;
7605;SDS011;3844;53.360;9.738;2023-04-06T12:31:38;10.57;;;6.43;;